sensor_id;sensor_type;location;lat;lon;timestamp;temperature;humidity
69626;DHT22;56847;51.984;5.088;2023-04-12T00:02:06;12.90;69.60
69626;DHT22;56847;51.984;5.088;2023-04-12T00:04:36;12.80;69.60
69626;DHT22;56847;51.984;5.088;2023-04-12T00:07:04;12.80;69.90
69626;DHT22;56847;51.984;5.088;2023-04-12T00:09:32;12.80;70.00
69626;DHT22;56847;51.984;5.088;2023-04-12T00:12:04;12.80;70.00
69626;DHT22;56847;51.984;5.088;2023-04-12T00:14:32;12.80;70.20
69626;DHT22;56847;51.984;5.088;2023-04-12T00:16:59;12.70;70.30
69626;DHT22;56847;51.984;5.088;2023-04-12T00:19:26;12.70;70.50
69626;DHT22;56847;51.984;5.088;2023-04-12T00:21:53;12.70;70.80
69626;DHT22;56847;51.984;5.088;2023-04-12T00:24:20;12.70;70.70
69626;DHT22;56847;51.984;5.088;2023-04-12T00:26:47;12.70;70.60
69626;DHT22;56847;51.984;5.088;2023-04-12T00:29:15;12.60;70.80
69626;DHT22;56847;51.984;5.088;2023-04-12T00:31:42;12.60;71.00
69626;DHT22;56847;51.984;5.088;2023-04-12T00:34:09;12.50;71.10
69626;DHT22;56847;51.984;5.088;2023-04-12T00:36:36;12.50;71.20
69626;DHT22;56847;51.984;5.088;2023-04-12T00:39:07;12.50;71.30
69626;DHT22;56847;51.984;5.088;2023-04-12T00:41:36;12.50;71.30
69626;DHT22;56847;51.984;5.088;2023-04-12T00:44:03;12.50;71.40
69626;DHT22;56847;51.984;5.088;2023-04-12T00:46:31;12.50;71.50
69626;DHT22;56847;51.984;5.088;2023-04-12T00:48:59;12.40;71.50
69626;DHT22;56847;51.984;5.088;2023-04-12T00:51:30;12.40;71.60
69626;DHT22;56847;51.984;5.088;2023-04-12T00:53:59;12.40;71.80
69626;DHT22;56847;51.984;5.088;2023-04-12T00:56:27;12.40;71.70
69626;DHT22;56847;51.984;5.088;2023-04-12T00:58:56;12.30;71.70
69626;DHT22;56847;51.984;5.088;2023-04-12T01:01:23;12.30;71.70
69626;DHT22;56847;51.984;5.088;2023-04-12T01:03:52;12.30;71.80
69626;DHT22;56847;51.984;5.088;2023-04-12T01:06:33;12.30;72.00
69626;DHT22;56847;51.984;5.088;2023-04-12T01:09:32;12.30;72.10
69626;DHT22;56847;51.984;5.088;2023-04-12T01:17:38;12.30;72.10
69626;DHT22;56847;51.984;5.088;2023-04-12T01:20:29;12.30;72.20
69626;DHT22;56847;51.984;5.088;2023-04-12T01:28:15;12.20;72.20
69626;DHT22;56847;51.984;5.088;2023-04-12T01:30:47;12.20;72.30
69626;DHT22;56847;51.984;5.088;2023-04-12T01:33:16;12.10;72.40
69626;DHT22;56847;51.984;5.088;2023-04-12T01:35:45;12.10;72.50
69626;DHT22;56847;51.984;5.088;2023-04-12T01:38:12;12.10;72.60
69626;DHT22;56847;51.984;5.088;2023-04-12T01:40:40;12.10;72.70
69626;DHT22;56847;51.984;5.088;2023-04-12T01:43:10;12.10;72.90
69626;DHT22;56847;51.984;5.088;2023-04-12T01:45:37;12.10;72.90
69626;DHT22;56847;51.984;5.088;2023-04-12T01:48:08;12.10;73.00
69626;DHT22;56847;51.984;5.088;2023-04-12T01:51:03;12.10;73.00
69626;DHT22;56847;51.984;5.088;2023-04-12T01:56:07;12.10;73.10
69626;DHT22;56847;51.984;5.088;2023-04-12T01:58:38;12.10;73.00
69626;DHT22;56847;51.984;5.088;2023-04-12T02:01:07;12.10;73.20
69626;DHT22;56847;51.984;5.088;2023-04-12T02:03:39;12.10;73.10
69626;DHT22;56847;51.984;5.088;2023-04-12T02:06:10;12.10;73.20
69626;DHT22;56847;51.984;5.088;2023-04-12T02:08:37;12.10;73.40
69626;DHT22;56847;51.984;5.088;2023-04-12T02:11:11;12.10;73.40
69626;DHT22;56847;51.984;5.088;2023-04-12T02:13:43;12.10;73.30
69626;DHT22;56847;51.984;5.088;2023-04-12T02:16:10;12.10;73.40
69626;DHT22;56847;51.984;5.088;2023-04-12T02:18:39;12.00;73.30
69626;DHT22;56847;51.984;5.088;2023-04-12T02:21:10;12.00;73.70
69626;DHT22;56847;51.984;5.088;2023-04-12T02:23:36;12.00;74.00
69626;DHT22;56847;51.984;5.088;2023-04-12T02:26:05;12.00;74.10
69626;DHT22;56847;51.984;5.088;2023-04-12T02:28:32;11.90;74.40
69626;DHT22;56847;51.984;5.088;2023-04-12T02:31:00;12.00;74.50
69626;DHT22;56847;51.984;5.088;2023-04-12T02:33:30;12.00;74.60
69626;DHT22;56847;51.984;5.088;2023-04-12T02:35:59;11.90;74.70
69626;DHT22;56847;51.984;5.088;2023-04-12T02:38:28;11.90;74.90
69626;DHT22;56847;51.984;5.088;2023-04-12T02:40:57;11.90;75.10
69626;DHT22;56847;51.984;5.088;2023-04-12T02:43:24;11.90;75.20
69626;DHT22;56847;51.984;5.088;2023-04-12T02:45:58;11.90;75.20
69626;DHT22;56847;51.984;5.088;2023-04-12T02:48:25;11.80;75.40
69626;DHT22;56847;51.984;5.088;2023-04-12T02:50:52;11.80;75.50
69626;DHT22;56847;51.984;5.088;2023-04-12T02:53:22;11.90;75.70
69626;DHT22;56847;51.984;5.088;2023-04-12T02:56:18;11.80;75.70
69626;DHT22;56847;51.984;5.088;2023-04-12T02:58:49;11.80;75.80
69626;DHT22;56847;51.984;5.088;2023-04-12T03:01:29;11.80;76.00
69626;DHT22;56847;51.984;5.088;2023-04-12T03:04:20;11.70;76.30
69626;DHT22;56847;51.984;5.088;2023-04-12T03:06:54;11.70;76.40
69626;DHT22;56847;51.984;5.088;2023-04-12T03:09:30;11.70;76.50
69626;DHT22;56847;51.984;5.088;2023-04-12T03:11:58;11.80;76.60
69626;DHT22;56847;51.984;5.088;2023-04-12T03:14:25;11.80;76.60
69626;DHT22;56847;51.984;5.088;2023-04-12T03:16:52;11.80;76.50
69626;DHT22;56847;51.984;5.088;2023-04-12T03:19:19;11.80;76.60
69626;DHT22;56847;51.984;5.088;2023-04-12T03:21:53;11.80;76.80
69626;DHT22;56847;51.984;5.088;2023-04-12T03:24:21;11.70;76.90
69626;DHT22;56847;51.984;5.088;2023-04-12T03:26:50;11.70;77.00
69626;DHT22;56847;51.984;5.088;2023-04-12T03:29:22;11.70;77.00
69626;DHT22;56847;51.984;5.088;2023-04-12T03:31:51;11.60;77.20
69626;DHT22;56847;51.984;5.088;2023-04-12T03:34:27;11.60;77.40
69626;DHT22;56847;51.984;5.088;2023-04-12T03:37:08;11.60;77.50
69626;DHT22;56847;51.984;5.088;2023-04-12T03:39:42;11.60;77.60
69626;DHT22;56847;51.984;5.088;2023-04-12T03:42:19;11.60;77.60
69626;DHT22;56847;51.984;5.088;2023-04-12T03:45:03;11.60;77.70
69626;DHT22;56847;51.984;5.088;2023-04-12T03:47:30;11.60;77.70
69626;DHT22;56847;51.984;5.088;2023-04-12T03:50:04;11.50;77.90
69626;DHT22;56847;51.984;5.088;2023-04-12T03:52:42;11.50;77.90
69626;DHT22;56847;51.984;5.088;2023-04-12T03:55:10;11.50;78.10
69626;DHT22;56847;51.984;5.088;2023-04-12T03:57:39;11.50;78.30
69626;DHT22;56847;51.984;5.088;2023-04-12T04:00:08;11.50;78.40
69626;DHT22;56847;51.984;5.088;2023-04-12T04:02:59;11.50;78.30
69626;DHT22;56847;51.984;5.088;2023-04-12T04:05:32;11.50;78.40
69626;DHT22;56847;51.984;5.088;2023-04-12T04:08:00;11.50;78.50
69626;DHT22;56847;51.984;5.088;2023-04-12T04:10:35;11.50;78.60
69626;DHT22;56847;51.984;5.088;2023-04-12T04:13:02;11.50;78.80
69626;DHT22;56847;51.984;5.088;2023-04-12T04:15:30;11.50;78.80
69626;DHT22;56847;51.984;5.088;2023-04-12T04:17:58;11.50;78.90
69626;DHT22;56847;51.984;5.088;2023-04-12T04:20:25;11.50;79.00
69626;DHT22;56847;51.984;5.088;2023-04-12T04:22:53;11.50;79.10
69626;DHT22;56847;51.984;5.088;2023-04-12T04:25:22;11.50;79.10
69626;DHT22;56847;51.984;5.088;2023-04-12T04:28:01;11.50;79.30
69626;DHT22;56847;51.984;5.088;2023-04-12T04:30:30;11.60;79.20
69626;DHT22;56847;51.984;5.088;2023-04-12T04:33:04;11.60;79.30
69626;DHT22;56847;51.984;5.088;2023-04-12T04:35:31;11.60;79.40
69626;DHT22;56847;51.984;5.088;2023-04-12T04:38:22;11.60;79.50
69626;DHT22;56847;51.984;5.088;2023-04-12T04:41:04;11.60;79.50
69626;DHT22;56847;51.984;5.088;2023-04-12T04:43:57;11.60;79.50
69626;DHT22;56847;51.984;5.088;2023-04-12T04:46:29;11.60;79.50
69626;DHT22;56847;51.984;5.088;2023-04-12T04:48:56;11.60;79.60
69626;DHT22;56847;51.984;5.088;2023-04-12T04:51:24;11.50;79.70
69626;DHT22;56847;51.984;5.088;2023-04-12T04:53:53;11.60;79.90
69626;DHT22;56847;51.984;5.088;2023-04-12T04:56:21;11.60;79.80
69626;DHT22;56847;51.984;5.088;2023-04-12T04:58:52;11.60;79.90
69626;DHT22;56847;51.984;5.088;2023-04-12T05:01:25;11.60;79.80
69626;DHT22;56847;51.984;5.088;2023-04-12T05:03:58;11.60;79.90
69626;DHT22;56847;51.984;5.088;2023-04-12T05:06:27;11.60;79.90
69626;DHT22;56847;51.984;5.088;2023-04-12T05:08:56;11.60;80.00
69626;DHT22;56847;51.984;5.088;2023-04-12T05:11:24;11.60;80.00
69626;DHT22;56847;51.984;5.088;2023-04-12T05:13:52;11.70;80.00
69626;DHT22;56847;51.984;5.088;2023-04-12T05:16:22;11.70;79.80
69626;DHT22;56847;51.984;5.088;2023-04-12T05:18:49;11.70;79.90
69626;DHT22;56847;51.984;5.088;2023-04-12T05:21:17;11.60;79.90
69626;DHT22;56847;51.984;5.088;2023-04-12T05:23:45;11.60;80.10
69626;DHT22;56847;51.984;5.088;2023-04-12T05:26:13;11.60;80.20
69626;DHT22;56847;51.984;5.088;2023-04-12T05:28:44;11.60;80.30
69626;DHT22;56847;51.984;5.088;2023-04-12T05:31:12;11.60;80.30
69626;DHT22;56847;51.984;5.088;2023-04-12T05:33:39;11.60;80.40
69626;DHT22;56847;51.984;5.088;2023-04-12T05:36:07;11.50;80.70
69626;DHT22;56847;51.984;5.088;2023-04-12T05:38:34;11.50;80.80
69626;DHT22;56847;51.984;5.088;2023-04-12T05:41:05;11.40;80.90
69626;DHT22;56847;51.984;5.088;2023-04-12T05:43:33;11.40;81.20
69626;DHT22;56847;51.984;5.088;2023-04-12T05:46:01;11.40;81.40
69626;DHT22;56847;51.984;5.088;2023-04-12T05:48:29;11.40;81.50
69626;DHT22;56847;51.984;5.088;2023-04-12T05:51:01;11.40;81.50
69626;DHT22;56847;51.984;5.088;2023-04-12T05:53:29;11.40;81.50
69626;DHT22;56847;51.984;5.088;2023-04-12T05:56:01;11.40;81.60
69626;DHT22;56847;51.984;5.088;2023-04-12T05:58:28;11.50;81.70
69626;DHT22;56847;51.984;5.088;2023-04-12T06:00:57;11.50;81.70
69626;DHT22;56847;51.984;5.088;2023-04-12T06:03:24;11.50;81.60
69626;DHT22;56847;51.984;5.088;2023-04-12T06:06:06;11.50;81.70
69626;DHT22;56847;51.984;5.088;2023-04-12T06:08:34;11.60;81.80
69626;DHT22;56847;51.984;5.088;2023-04-12T06:11:05;11.60;81.70
69626;DHT22;56847;51.984;5.088;2023-04-12T06:13:33;11.60;81.70
69626;DHT22;56847;51.984;5.088;2023-04-12T06:16:04;11.60;81.80
69626;DHT22;56847;51.984;5.088;2023-04-12T06:18:31;11.70;81.80
69626;DHT22;56847;51.984;5.088;2023-04-12T06:20:59;11.70;81.90
69626;DHT22;56847;51.984;5.088;2023-04-12T06:23:26;11.70;82.00
69626;DHT22;56847;51.984;5.088;2023-04-12T06:25:53;11.70;81.90
69626;DHT22;56847;51.984;5.088;2023-04-12T06:28:23;11.80;81.90
69626;DHT22;56847;51.984;5.088;2023-04-12T06:30:51;11.80;81.90
69626;DHT22;56847;51.984;5.088;2023-04-12T06:33:22;11.90;81.70
69626;DHT22;56847;51.984;5.088;2023-04-12T06:35:50;11.90;81.70
69626;DHT22;56847;51.984;5.088;2023-04-12T06:38:17;11.90;81.70
69626;DHT22;56847;51.984;5.088;2023-04-12T06:40:44;11.90;81.80
69626;DHT22;56847;51.984;5.088;2023-04-12T06:43:14;12.00;81.90
69626;DHT22;56847;51.984;5.088;2023-04-12T06:45:41;12.00;81.90
69626;DHT22;56847;51.984;5.088;2023-04-12T06:48:08;12.00;81.80
69626;DHT22;56847;51.984;5.088;2023-04-12T06:50:35;12.10;81.90
69626;DHT22;56847;51.984;5.088;2023-04-12T06:53:03;12.20;81.80
69626;DHT22;56847;51.984;5.088;2023-04-12T06:55:30;12.20;81.80
69626;DHT22;56847;51.984;5.088;2023-04-12T06:57:57;12.20;81.60
69626;DHT22;56847;51.984;5.088;2023-04-12T07:00:24;12.20;81.50
69626;DHT22;56847;51.984;5.088;2023-04-12T07:02:51;12.20;81.70
69626;DHT22;56847;51.984;5.088;2023-04-12T07:05:24;12.30;82.00
69626;DHT22;56847;51.984;5.088;2023-04-12T07:07:51;12.40;81.80
69626;DHT22;56847;51.984;5.088;2023-04-12T07:10:19;12.40;81.20
69626;DHT22;56847;51.984;5.088;2023-04-12T07:12:46;12.40;81.30
69626;DHT22;56847;51.984;5.088;2023-04-12T07:15:13;12.40;81.40
69626;DHT22;56847;51.984;5.088;2023-04-12T07:17:39;12.40;81.50
69626;DHT22;56847;51.984;5.088;2023-04-12T07:20:07;12.50;81.50
69626;DHT22;56847;51.984;5.088;2023-04-12T07:22:34;12.50;81.40
69626;DHT22;56847;51.984;5.088;2023-04-12T07:25:01;12.50;81.40
69626;DHT22;56847;51.984;5.088;2023-04-12T07:27:28;12.50;81.80
69626;DHT22;56847;51.984;5.088;2023-04-12T07:29:55;12.60;81.60
69626;DHT22;56847;51.984;5.088;2023-04-12T07:32:24;12.70;82.00
69626;DHT22;56847;51.984;5.088;2023-04-12T07:34:51;12.80;81.60
69626;DHT22;56847;51.984;5.088;2023-04-12T07:37:19;12.80;81.20
69626;DHT22;56847;51.984;5.088;2023-04-12T07:39:46;12.90;81.10
69626;DHT22;56847;51.984;5.088;2023-04-12T07:42:13;12.90;81.30
69626;DHT22;56847;51.984;5.088;2023-04-12T07:44:42;13.00;81.10
69626;DHT22;56847;51.984;5.088;2023-04-12T07:47:09;13.10;81.10
69626;DHT22;56847;51.984;5.088;2023-04-12T07:49:36;13.20;80.80
69626;DHT22;56847;51.984;5.088;2023-04-12T07:52:03;13.20;80.30
69626;DHT22;56847;51.984;5.088;2023-04-12T07:54:30;13.20;79.90
69626;DHT22;56847;51.984;5.088;2023-04-12T07:56:58;13.10;79.80
69626;DHT22;56847;51.984;5.088;2023-04-12T07:59:26;13.20;80.00
69626;DHT22;56847;51.984;5.088;2023-04-12T08:01:53;13.20;80.30
69626;DHT22;56847;51.984;5.088;2023-04-12T08:04:20;13.40;80.20
69626;DHT22;56847;51.984;5.088;2023-04-12T08:06:48;13.40;80.20
69626;DHT22;56847;51.984;5.088;2023-04-12T08:09:14;13.60;80.20
69626;DHT22;56847;51.984;5.088;2023-04-12T08:11:42;13.60;79.80
69626;DHT22;56847;51.984;5.088;2023-04-12T08:14:09;13.60;79.10
69626;DHT22;56847;51.984;5.088;2023-04-12T08:16:36;13.50;78.90
69626;DHT22;56847;51.984;5.088;2023-04-12T08:19:03;13.40;78.40
69626;DHT22;56847;51.984;5.088;2023-04-12T08:21:30;13.20;77.90
69626;DHT22;56847;51.984;5.088;2023-04-12T08:23:57;13.10;78.10
69626;DHT22;56847;51.984;5.088;2023-04-12T08:26:28;13.10;79.00
69626;DHT22;56847;51.984;5.088;2023-04-12T08:28:55;13.10;79.50
69626;DHT22;56847;51.984;5.088;2023-04-12T08:31:24;13.20;80.00
69626;DHT22;56847;51.984;5.088;2023-04-12T08:33:51;13.30;79.80
69626;DHT22;56847;51.984;5.088;2023-04-12T08:36:22;13.40;79.70
69626;DHT22;56847;51.984;5.088;2023-04-12T08:38:50;13.50;78.90
69626;DHT22;56847;51.984;5.088;2023-04-12T08:41:19;13.40;78.40
69626;DHT22;56847;51.984;5.088;2023-04-12T08:43:46;13.40;78.50
69626;DHT22;56847;51.984;5.088;2023-04-12T08:46:14;13.50;78.50
69626;DHT22;56847;51.984;5.088;2023-04-12T08:48:44;13.60;78.20
69626;DHT22;56847;51.984;5.088;2023-04-12T08:51:14;13.70;78.60
69626;DHT22;56847;51.984;5.088;2023-04-12T08:53:42;13.90;78.50
69626;DHT22;56847;51.984;5.088;2023-04-12T08:56:10;14.20;79.60
69626;DHT22;56847;51.984;5.088;2023-04-12T08:58:44;14.60;79.80
69626;DHT22;56847;51.984;5.088;2023-04-12T09:01:14;15.00;79.60
69626;DHT22;56847;51.984;5.088;2023-04-12T09:03:44;15.30;77.80
69626;DHT22;56847;51.984;5.088;2023-04-12T09:06:12;15.40;76.90
69626;DHT22;56847;51.984;5.088;2023-04-12T09:08:53;15.40;75.90
69626;DHT22;56847;51.984;5.088;2023-04-12T09:11:25;15.50;76.50
69626;DHT22;56847;51.984;5.088;2023-04-12T09:13:56;15.60;75.50
69626;DHT22;56847;51.984;5.088;2023-04-12T09:16:40;15.60;75.30
69626;DHT22;56847;51.984;5.088;2023-04-12T09:19:08;15.70;74.30
69626;DHT22;56847;51.984;5.088;2023-04-12T09:21:36;15.70;74.40
69626;DHT22;56847;51.984;5.088;2023-04-12T09:24:07;15.70;73.30
69626;DHT22;56847;51.984;5.088;2023-04-12T09:26:40;15.80;74.30
69626;DHT22;56847;51.984;5.088;2023-04-12T09:29:24;15.90;73.60
69626;DHT22;56847;51.984;5.088;2023-04-12T09:32:02;15.90;72.20
69626;DHT22;56847;51.984;5.088;2023-04-12T09:34:31;15.90;72.50
69626;DHT22;56847;51.984;5.088;2023-04-12T09:36:59;15.90;70.10
69626;DHT22;56847;51.984;5.088;2023-04-12T09:39:32;15.80;71.20
69626;DHT22;56847;51.984;5.088;2023-04-12T09:42:06;15.90;71.20
69626;DHT22;56847;51.984;5.088;2023-04-12T09:44:52;16.00;71.70
69626;DHT22;56847;51.984;5.088;2023-04-12T09:47:19;16.10;71.40
69626;DHT22;56847;51.984;5.088;2023-04-12T09:49:47;16.10;71.50
69626;DHT22;56847;51.984;5.088;2023-04-12T09:52:14;16.30;71.30
69626;DHT22;56847;51.984;5.088;2023-04-12T09:54:41;16.50;70.70
69626;DHT22;56847;51.984;5.088;2023-04-12T09:57:09;16.70;70.50
69626;DHT22;56847;51.984;5.088;2023-04-12T09:59:39;16.80;68.10
69626;DHT22;56847;51.984;5.088;2023-04-12T10:02:13;16.80;66.50
69626;DHT22;56847;51.984;5.088;2023-04-12T10:04:42;16.70;68.00
69626;DHT22;56847;51.984;5.088;2023-04-12T10:07:10;16.80;68.50
69626;DHT22;56847;51.984;5.088;2023-04-12T10:09:40;16.70;66.20
69626;DHT22;56847;51.984;5.088;2023-04-12T10:12:08;16.50;65.80
69626;DHT22;56847;51.984;5.088;2023-04-12T10:14:35;16.30;65.10
69626;DHT22;56847;51.984;5.088;2023-04-12T10:17:03;16.00;64.50
69626;DHT22;56847;51.984;5.088;2023-04-12T10:19:34;15.50;64.80
69626;DHT22;56847;51.984;5.088;2023-04-12T10:22:03;15.00;67.00
69626;DHT22;56847;51.984;5.088;2023-04-12T10:24:30;14.70;67.80
69626;DHT22;56847;51.984;5.088;2023-04-12T10:26:59;14.50;69.20
69626;DHT22;56847;51.984;5.088;2023-04-12T10:29:33;14.60;70.70
69626;DHT22;56847;51.984;5.088;2023-04-12T10:34:57;15.60;72.30
69626;DHT22;56847;51.984;5.088;2023-04-12T10:38:05;15.90;70.80
69626;DHT22;56847;51.984;5.088;2023-04-12T10:40:33;16.20;69.20
69626;DHT22;56847;51.984;5.088;2023-04-12T10:43:25;16.40;67.70
69626;DHT22;56847;51.984;5.088;2023-04-12T10:45:53;16.50;65.40
69626;DHT22;56847;51.984;5.088;2023-04-12T10:56:43;16.30;61.60
69626;DHT22;56847;51.984;5.088;2023-04-12T10:59:24;16.30;59.00
69626;DHT22;56847;51.984;5.088;2023-04-12T11:02:07;16.20;58.20
69626;DHT22;56847;51.984;5.088;2023-04-12T11:04:35;16.20;57.90
69626;DHT22;56847;51.984;5.088;2023-04-12T11:07:08;16.10;56.70
69626;DHT22;56847;51.984;5.088;2023-04-12T11:09:41;16.10;57.50
69626;DHT22;56847;51.984;5.088;2023-04-12T11:12:13;16.00;58.00
69626;DHT22;56847;51.984;5.088;2023-04-12T11:14:49;15.90;58.20
69626;DHT22;56847;51.984;5.088;2023-04-12T11:17:21;15.90;58.50
69626;DHT22;56847;51.984;5.088;2023-04-12T11:19:55;15.90;58.10
69626;DHT22;56847;51.984;5.088;2023-04-12T11:22:27;15.80;58.10
69626;DHT22;56847;51.984;5.088;2023-04-12T11:25:00;15.80;57.90
69626;DHT22;56847;51.984;5.088;2023-04-12T11:27:28;15.90;56.90
69626;DHT22;56847;51.984;5.088;2023-04-12T11:29:58;15.90;54.20
69626;DHT22;56847;51.984;5.088;2023-04-12T11:32:27;15.90;53.10
69626;DHT22;56847;51.984;5.088;2023-04-12T11:34:55;16.00;53.70
69626;DHT22;56847;51.984;5.088;2023-04-12T11:37:23;16.10;54.10
69626;DHT22;56847;51.984;5.088;2023-04-12T11:39:55;16.30;53.40
69626;DHT22;56847;51.984;5.088;2023-04-12T11:42:24;16.40;54.30
69626;DHT22;56847;51.984;5.088;2023-04-12T11:44:52;16.50;54.00
69626;DHT22;56847;51.984;5.088;2023-04-12T11:47:27;16.60;54.70
69626;DHT22;56847;51.984;5.088;2023-04-12T11:49:56;16.60;52.10
69626;DHT22;56847;51.984;5.088;2023-04-12T11:52:29;16.40;51.90
69626;DHT22;56847;51.984;5.088;2023-04-12T11:55:02;16.40;51.00
69626;DHT22;56847;51.984;5.088;2023-04-12T11:57:32;16.40;50.90
69626;DHT22;56847;51.984;5.088;2023-04-12T12:00:00;16.50;50.40
69626;DHT22;56847;51.984;5.088;2023-04-12T12:02:42;16.60;50.00
69626;DHT22;56847;51.984;5.088;2023-04-12T12:05:22;16.50;49.30
69626;DHT22;56847;51.984;5.088;2023-04-12T12:07:49;16.50;48.50
69626;DHT22;56847;51.984;5.088;2023-04-12T12:10:18;16.40;47.70
69626;DHT22;56847;51.984;5.088;2023-04-12T12:13:14;16.20;46.70
69626;DHT22;56847;51.984;5.088;2023-04-12T12:15:44;16.10;46.60
69626;DHT22;56847;51.984;5.088;2023-04-12T12:18:12;16.00;46.70
69626;DHT22;56847;51.984;5.088;2023-04-12T12:20:48;16.00;47.70
69626;DHT22;56847;51.984;5.088;2023-04-12T12:23:31;16.10;48.00
69626;DHT22;56847;51.984;5.088;2023-04-12T12:25:59;16.20;48.50
69626;DHT22;56847;51.984;5.088;2023-04-12T12:28:49;16.20;48.70
69626;DHT22;56847;51.984;5.088;2023-04-12T12:31:24;16.30;48.20
69626;DHT22;56847;51.984;5.088;2023-04-12T12:33:55;16.20;47.40
69626;DHT22;56847;51.984;5.088;2023-04-12T12:36:34;16.20;47.90
69626;DHT22;56847;51.984;5.088;2023-04-12T12:39:08;16.30;48.30
69626;DHT22;56847;51.984;5.088;2023-04-12T12:41:38;16.30;47.40
69626;DHT22;56847;51.984;5.088;2023-04-12T12:44:06;16.30;44.70
69626;DHT22;56847;51.984;5.088;2023-04-12T12:46:34;16.10;45.20
69626;DHT22;56847;51.984;5.088;2023-04-12T12:49:05;16.10;45.70
69626;DHT22;56847;51.984;5.088;2023-04-12T12:51:32;16.00;46.30
69626;DHT22;56847;51.984;5.088;2023-04-12T12:53:59;15.70;47.30
69626;DHT22;56847;51.984;5.088;2023-04-12T12:56:26;15.40;48.20
69626;DHT22;56847;51.984;5.088;2023-04-12T12:58:53;15.20;48.40
69626;DHT22;56847;51.984;5.088;2023-04-12T13:01:21;15.00;49.20
69626;DHT22;56847;51.984;5.088;2023-04-12T13:03:48;14.90;51.30
69626;DHT22;56847;51.984;5.088;2023-04-12T13:06:15;14.60;52.90
69626;DHT22;56847;51.984;5.088;2023-04-12T13:08:44;14.50;55.40
69626;DHT22;56847;51.984;5.088;2023-04-12T13:11:12;14.70;57.00
69626;DHT22;56847;51.984;5.088;2023-04-12T13:13:39;14.60;56.00
69626;DHT22;56847;51.984;5.088;2023-04-12T13:16:07;14.40;57.50
69626;DHT22;56847;51.984;5.088;2023-04-12T13:18:35;14.30;59.60
69626;DHT22;56847;51.984;5.088;2023-04-12T13:21:01;14.40;60.90
69626;DHT22;56847;51.984;5.088;2023-04-12T13:23:29;14.50;62.20
69626;DHT22;56847;51.984;5.088;2023-04-12T13:25:56;14.60;61.10
69626;DHT22;56847;51.984;5.088;2023-04-12T13:28:23;14.70;59.90
69626;DHT22;56847;51.984;5.088;2023-04-12T13:30:50;14.60;59.10
69626;DHT22;56847;51.984;5.088;2023-04-12T13:33:17;14.60;58.50
69626;DHT22;56847;51.984;5.088;2023-04-12T13:35:47;14.70;59.90
69626;DHT22;56847;51.984;5.088;2023-04-12T13:38:14;14.90;58.90
69626;DHT22;56847;51.984;5.088;2023-04-12T13:40:42;14.90;57.80
69626;DHT22;56847;51.984;5.088;2023-04-12T13:43:09;14.90;58.00
69626;DHT22;56847;51.984;5.088;2023-04-12T13:45:36;15.00;58.90
69626;DHT22;56847;51.984;5.088;2023-04-12T13:48:03;15.30;59.40
69626;DHT22;56847;51.984;5.088;2023-04-12T13:50:30;15.60;59.60
69626;DHT22;56847;51.984;5.088;2023-04-12T13:52:57;15.80;59.20
69626;DHT22;56847;51.984;5.088;2023-04-12T13:55:24;15.90;57.60
69626;DHT22;56847;51.984;5.088;2023-04-12T13:57:51;16.00;56.20
69626;DHT22;56847;51.984;5.088;2023-04-12T14:00:19;16.10;56.00
69626;DHT22;56847;51.984;5.088;2023-04-12T14:02:46;16.00;54.90
69626;DHT22;56847;51.984;5.088;2023-04-12T14:05:13;15.80;54.70
69626;DHT22;56847;51.984;5.088;2023-04-12T14:07:41;15.60;54.30
69626;DHT22;56847;51.984;5.088;2023-04-12T14:10:09;15.40;54.80
69626;DHT22;56847;51.984;5.088;2023-04-12T14:12:36;15.20;55.00
69626;DHT22;56847;51.984;5.088;2023-04-12T14:15:03;15.00;55.40
69626;DHT22;56847;51.984;5.088;2023-04-12T14:17:31;14.90;56.30
69626;DHT22;56847;51.984;5.088;2023-04-12T14:19:59;14.80;56.90
69626;DHT22;56847;51.984;5.088;2023-04-12T14:22:26;14.70;56.90
69626;DHT22;56847;51.984;5.088;2023-04-12T14:24:53;14.60;57.10
69626;DHT22;56847;51.984;5.088;2023-04-12T14:27:20;14.70;58.00
69626;DHT22;56847;51.984;5.088;2023-04-12T14:29:48;14.80;57.50
69626;DHT22;56847;51.984;5.088;2023-04-12T14:32:15;14.80;57.40
69626;DHT22;56847;51.984;5.088;2023-04-12T14:34:42;14.90;57.20
69626;DHT22;56847;51.984;5.088;2023-04-12T14:37:13;15.00;57.10
69626;DHT22;56847;51.984;5.088;2023-04-12T14:39:40;15.50;57.60
69626;DHT22;56847;51.984;5.088;2023-04-12T14:42:07;15.70;56.50
69626;DHT22;56847;51.984;5.088;2023-04-12T14:44:35;15.80;56.00
69626;DHT22;56847;51.984;5.088;2023-04-12T14:47:02;15.70;54.50
69626;DHT22;56847;51.984;5.088;2023-04-12T14:49:29;15.40;55.50
69626;DHT22;56847;51.984;5.088;2023-04-12T14:51:59;15.20;56.70
69626;DHT22;56847;51.984;5.088;2023-04-12T14:54:26;15.00;56.70
69626;DHT22;56847;51.984;5.088;2023-04-12T14:56:53;14.90;57.40
69626;DHT22;56847;51.984;5.088;2023-04-12T14:59:22;14.80;57.90
69626;DHT22;56847;51.984;5.088;2023-04-12T15:01:49;14.80;58.20
69626;DHT22;56847;51.984;5.088;2023-04-12T15:04:18;14.80;57.80
69626;DHT22;56847;51.984;5.088;2023-04-12T15:06:46;14.80;58.30
69626;DHT22;56847;51.984;5.088;2023-04-12T15:09:13;14.90;57.60
69626;DHT22;56847;51.984;5.088;2023-04-12T15:11:43;15.10;57.40
69626;DHT22;56847;51.984;5.088;2023-04-12T15:14:13;15.10;56.70
69626;DHT22;56847;51.984;5.088;2023-04-12T15:16:46;15.10;56.50
69626;DHT22;56847;51.984;5.088;2023-04-12T15:19:16;15.10;57.20
69626;DHT22;56847;51.984;5.088;2023-04-12T15:21:52;15.30;57.50
69626;DHT22;56847;51.984;5.088;2023-04-12T15:24:23;15.60;56.00
69626;DHT22;56847;51.984;5.088;2023-04-12T15:26:51;15.70;55.40
69626;DHT22;56847;51.984;5.088;2023-04-12T15:29:19;15.80;55.80
69626;DHT22;56847;51.984;5.088;2023-04-12T15:31:47;16.00;55.70
69626;DHT22;56847;51.984;5.088;2023-04-12T15:34:15;16.20;55.90
69626;DHT22;56847;51.984;5.088;2023-04-12T15:36:42;16.50;54.60
69626;DHT22;56847;51.984;5.088;2023-04-12T15:39:13;16.60;53.10
69626;DHT22;56847;51.984;5.088;2023-04-12T15:41:40;16.50;52.80
69626;DHT22;56847;51.984;5.088;2023-04-12T15:44:09;16.40;52.00
69626;DHT22;56847;51.984;5.088;2023-04-12T15:46:39;16.40;51.70
69626;DHT22;56847;51.984;5.088;2023-04-12T15:49:07;16.30;51.80
69626;DHT22;56847;51.984;5.088;2023-04-12T15:51:34;16.40;52.10
69626;DHT22;56847;51.984;5.088;2023-04-12T15:54:04;16.40;52.00
69626;DHT22;56847;51.984;5.088;2023-04-12T15:56:31;16.50;51.60
69626;DHT22;56847;51.984;5.088;2023-04-12T15:59:02;16.80;52.70
69626;DHT22;56847;51.984;5.088;2023-04-12T16:01:29;17.00;52.00
69626;DHT22;56847;51.984;5.088;2023-04-12T16:03:56;17.00;52.20
69626;DHT22;56847;51.984;5.088;2023-04-12T16:06:23;16.90;52.30
69626;DHT22;56847;51.984;5.088;2023-04-12T16:08:52;17.00;52.90
69626;DHT22;56847;51.984;5.088;2023-04-12T16:11:22;17.00;52.10
69626;DHT22;56847;51.984;5.088;2023-04-12T16:13:50;16.90;52.10